Time;durP1;ratioP1;P1;durP2;ratioP2;P2;SDS_P1;SDS_P2;PMS_P1;PMS_P2;Temp;Humidity;BMP_temperature;BMP_pressure;BME280_temperature;BME280_humidity;BME280_pressure;Samples;Min_cycle;Max_cycle;Signal;HPM_P1;HPM_P2
2020/12/27 00:00:10;;;;;;;5.30;2.87;;;1.90;99.90;;;2.39;100.00;97798.31;4962071;28;20972;-82
2020/12/27 00:02:39;;;;;;;6.50;2.70;;;1.90;99.90;;;2.44;100.00;97800.47;4964971;28;20495;-82
2020/12/27 00:05:07;;;;;;;2.70;2.37;;;2.00;99.90;;;2.43;100.00;97797.06;4970285;28;20473;-82
2020/12/27 00:07:35;;;;;;;3.80;2.93;;;1.90;99.90;;;2.39;100.00;97795.75;4960423;28;20479;-82
2020/12/27 00:10:06;;;;;;;6.40;3.10;;;1.90;99.90;;;2.34;100.00;97804.84;4961779;28;20475;-82
2020/12/27 00:12:34;;;;;;;3.10;2.80;;;1.80;99.90;;;2.29;100.00;97774.31;4958772;28;20492;-82
2020/12/27 00:15:01;;;;;;;3.77;2.27;;;1.80;99.90;;;2.30;100.00;97777.69;4959845;28;20481;-82
2020/12/27 00:17:29;;;;;;;3.00;2.57;;;1.80;99.90;;;2.32;100.00;97766.31;4961453;28;20576;-83
2020/12/27 00:19:57;;;;;;;3.57;2.40;;;1.80;99.90;;;2.34;100.00;97763.56;4959585;28;20517;-82
2020/12/27 00:22:25;;;;;;;7.40;2.83;;;1.90;99.90;;;2.33;100.00;97762.75;4961553;28;20493;-83
2020/12/27 00:24:53;;;;;;;3.10;2.50;;;1.80;99.90;;;2.29;100.00;97765.78;4959913;28;20472;-83
2020/12/27 00:27:21;;;;;;;4.63;2.90;;;1.80;99.90;;;2.24;100.00;97758.47;4961093;28;20536;-82
2020/12/27 00:29:49;;;;;;;6.63;3.30;;;1.70;99.90;;;2.28;100.00;97751.25;4990217;28;20502;-82
2020/12/27 00:32:16;;;;;;;3.80;2.90;;;1.80;99.90;;;2.26;100.00;97735.91;4998635;28;20471;-82
2020/12/27 00:34:51;;;;;;;6.57;2.80;;;1.80;99.90;;;2.26;100.00;97723.00;4997663;28;20511;-82
2020/12/27 00:37:19;;;;;;;6.20;3.20;;;1.80;99.90;;;2.26;100.00;97719.63;4999322;28;20455;-83
2020/12/27 00:39:47;;;;;;;3.43;2.67;;;1.80;99.90;;;2.30;100.00;97715.78;4997897;28;20463;-82
2020/12/27 00:42:15;;;;;;;5.73;3.03;;;1.80;99.90;;;2.25;100.00;97703.34;4999111;28;21259;-83
2020/12/27 00:44:43;;;;;;;7.73;2.53;;;1.80;99.90;;;2.26;100.00;97688.66;4998802;28;20525;-83
2020/12/27 00:47:11;;;;;;;6.60;3.40;;;1.80;99.90;;;2.21;100.00;97681.38;4998407;28;20497;-82
2020/12/27 00:49:38;;;;;;;3.30;2.40;;;1.80;99.90;;;2.15;100.00;97687.13;4998022;28;20467;-82
2020/12/27 00:52:06;;;;;;;6.67;2.83;;;1.70;99.90;;;2.14;100.00;97666.63;4998750;28;20984;-82
2020/12/27 00:54:35;;;;;;;4.43;2.23;;;1.70;99.90;;;2.16;100.00;97650.03;4997331;28;20503;-82
2020/12/27 00:57:02;;;;;;;4.83;2.90;;;1.70;99.90;;;2.17;100.00;97643.94;4998040;28;20464;-82
2020/12/27 00:59:30;;;;;;;10.20;3.23;;;1.70;99.90;;;2.22;100.00;97620.31;4998448;28;20467;-82
2020/12/27 01:01:58;;;;;;;3.20;2.50;;;1.80;99.90;;;2.24;100.00;97624.34;4998334;28;20492;-82
2020/12/27 01:04:26;;;;;;;4.33;2.63;;;1.80;99.90;;;2.24;100.00;97610.63;4999538;28;20477;-82
2020/12/27 01:06:56;;;;;;;3.90;2.70;;;1.70;99.90;;;2.22;100.00;97602.25;4999068;28;20476;-83
2020/12/27 01:09:24;;;;;;;7.57;3.40;;;1.70;99.90;;;2.16;100.00;97585.56;4997822;28;20466;-83
2020/12/27 01:11:51;;;;;;;4.50;3.30;;;1.60;99.90;;;2.18;100.00;97573.34;4997693;28;20466;-83
2020/12/27 01:14:19;;;;;;;7.93;3.13;;;1.60;99.90;;;2.10;100.00;97568.09;4996413;28;20495;-82
2020/12/27 01:16:49;;;;;;;5.03;2.70;;;1.60;99.90;;;2.17;100.00;97564.00;4997197;28;20464;-82
2020/12/27 01:19:18;;;;;;;6.80;2.80;;;1.60;99.90;;;2.16;100.00;97548.66;5000009;28;20455;-82
2020/12/27 01:21:47;;;;;;;5.70;2.67;;;1.60;99.90;;;2.15;100.00;97547.88;4999325;28;20543;-82
2020/12/27 01:24:15;;;;;;;4.37;2.60;;;1.70;99.90;;;2.13;100.00;97539.44;4999337;28;20459;-82
2020/12/27 01:26:43;;;;;;;4.43;2.37;;;1.60;99.90;;;2.19;100.00;97543.19;4996410;28;20471;-82
2020/12/27 01:29:10;;;;;;;4.90;1.97;;;1.70;99.90;;;2.10;100.00;97546.66;4997498;28;20500;-82
2020/12/27 01:31:39;;;;;;;2.67;2.40;;;1.60;99.90;;;2.05;100.00;97541.94;4998354;28;20459;-82
2020/12/27 01:34:06;;;;;;;4.90;2.40;;;1.50;99.90;;;2.10;100.00;97529.44;4997395;28;20498;-82
2020/12/27 01:36:36;;;;;;;5.07;2.73;;;1.60;99.90;;;2.11;100.00;97523.34;4996677;28;20472;-82
2020/12/27 01:39:07;;;;;;;6.50;2.40;;;1.50;99.90;;;2.16;100.00;97518.53;4997354;28;20456;-83
2020/12/27 01:41:36;;;;;;;3.63;1.80;;;1.70;99.90;;;2.17;100.00;97520.16;4992784;28;20468;-82
2020/12/27 01:44:07;;;;;;;2.90;2.00;;;1.70;99.90;;;2.16;100.00;97512.56;4996491;28;20467;-82
2020/12/27 01:46:37;;;;;;;3.80;2.50;;;1.60;99.90;;;2.17;100.00;97509.84;4996059;28;21337;-82
2020/12/27 01:49:07;;;;;;;3.23;2.10;;;1.60;99.90;;;2.23;100.00;97492.94;4997882;28;20474;-82
2020/12/27 01:51:36;;;;;;;2.00;1.80;;;1.70;99.90;;;2.22;100.00;97494.72;4997193;28;20471;-83
2020/12/27 01:54:05;;;;;;;2.47;2.20;;;1.70;99.90;;;2.22;100.00;97502.44;4998054;28;21007;-82
2020/12/27 01:56:38;;;;;;;5.33;2.00;;;1.70;99.90;;;2.22;100.00;97502.44;4995785;28;20462;-82
2020/12/27 01:59:10;;;;;;;2.50;2.30;;;1.60;99.90;;;2.30;100.00;97509.44;4997990;28;20467;-83
2020/12/27 02:01:38;;;;;;;6.93;2.00;;;1.80;99.90;;;2.28;100.00;97499.31;4996526;28;20466;-82
2020/12/27 02:04:06;;;;;;;4.00;1.90;;;1.80;99.90;;;2.31;100.00;97504.16;4996594;28;21684;-82
2020/12/27 02:06:35;;;;;;;2.27;1.97;;;1.80;99.90;;;2.34;100.00;97495.31;4996747;28;20802;-82
2020/12/27 02:09:06;;;;;;;5.60;2.40;;;1.80;99.90;;;2.35;100.00;97487.44;4999017;28;20783;-82
2020/12/27 02:11:34;;;;;;;4.03;2.17;;;1.90;99.90;;;2.32;100.00;97485.16;4999060;28;20443;-82
2020/12/27 02:14:01;;;;;;;2.43;1.90;;;1.80;99.90;;;2.31;100.00;97478.38;4996834;28;20502;-82
2020/12/27 02:16:31;;;;;;;2.50;2.30;;;1.90;99.90;;;2.30;100.00;97473.34;4997261;28;21189;-82
2020/12/27 02:19:01;;;;;;;3.80;2.20;;;1.80;99.90;;;2.31;100.00;97470.63;4996982;28;20921;-82
2020/12/27 02:21:29;;;;;;;4.17;1.90;;;1.80;99.90;;;2.35;100.00;97469.38;4997301;28;20494;-82
2020/12/27 02:23:58;;;;;;;3.40;2.03;;;1.80;99.90;;;2.31;100.00;97450.00;4996476;28;20466;-83
2020/12/27 02:26:27;;;;;;;2.03;1.77;;;1.80;99.90;;;2.32;100.00;97441.31;4997694;28;20467;-82
2020/12/27 02:28:57;;;;;;;4.70;2.47;;;1.80;99.90;;;2.29;100.00;97435.63;4997375;28;20502;-82
2020/12/27 02:31:27;;;;;;;3.90;2.10;;;1.80;99.90;;;2.23;100.00;97425.91;4996207;28;20520;-82
2020/12/27 02:33:56;;;;;;;2.33;1.80;;;1.70;99.90;;;2.25;100.00;97409.34;4997057;28;20499;-82
2020/12/27 02:36:24;;;;;;;6.23;2.40;;;1.80;99.90;;;2.17;100.00;97417.00;4996274;28;20467;-82
2020/12/27 02:38:51;;;;;;;2.70;2.23;;;1.70;99.90;;;2.15;100.00;97400.88;4998672;28;20460;-82
2020/12/27 02:41:23;;;;;;;3.87;2.40;;;1.70;99.90;;;2.19;100.00;97391.88;4997528;28;20467;-82
2020/12/27 02:43:51;;;;;;;2.90;2.00;;;1.70;99.90;;;2.22;100.00;97377.88;4996996;28;20467;-83
2020/12/27 02:46:23;;;;;;;4.20;2.33;;;1.70;99.90;;;2.24;100.00;97360.47;4995399;28;20459;-82
2020/12/27 02:48:51;;;;;;;2.63;2.10;;;1.80;99.90;;;2.22;100.00;97357.25;4997448;28;20462;-82
2020/12/27 02:51:20;;;;;;;1.80;1.70;;;1.70;99.90;;;2.23;100.00;97339.03;4995924;28;20490;-82
2020/12/27 02:53:49;;;;;;;2.43;1.90;;;1.80;99.90;;;2.23;100.00;97346.78;4997473;28;20892;-82
2020/12/27 02:56:20;;;;;;;8.83;1.73;;;1.80;99.90;;;2.23;100.00;97339.03;4996000;28;21250;-82
2020/12/27 02:58:48;;;;;;;2.10;1.77;;;1.70;99.90;;;2.26;100.00;97322.44;4998350;28;20435;-82
2020/12/27 03:01:17;;;;;;;3.87;1.90;;;1.80;99.90;;;2.19;100.00;97324.81;4998062;28;20462;-83
2020/12/27 03:03:45;;;;;;;4.07;2.27;;;1.70;99.90;;;2.11;100.00;97311.91;4996879;28;20482;-82
2020/12/27 03:06:27;;;;;;;2.90;2.13;;;1.50;99.90;;;2.17;100.00;97302.75;4993160;28;20545;-82
2020/12/27 03:08:55;;;;;;;2.83;1.63;;;1.60;99.90;;;2.15;100.00;97290.00;4998069;28;20458;-83
2020/12/27 03:11:25;;;;;;;1.60;1.50;;;1.60;99.90;;;2.20;100.00;97285.19;4995065;28;20521;-82
2020/12/27 03:13:54;;;;;;;2.30;1.73;;;1.60;99.90;;;2.19;100.00;97283.56;4993616;28;21018;-83
2020/12/27 03:16:23;;;;;;;3.40;1.80;;;1.70;99.90;;;2.15;100.00;97271.97;4998425;28;20474;-82
2020/12/27 03:18:51;;;;;;;2.27;1.70;;;1.60;99.90;;;2.21;100.00;97262.78;5000796;28;21037;-82
2020/12/27 03:21:18;;;;;;;2.00;1.70;;;1.70;99.90;;;2.15;100.00;97253.91;4999482;28;20480;-83
2020/12/27 03:23:46;;;;;;;2.80;1.60;;;1.70;99.90;;;2.18;100.00;97248.44;4999439;28;20474;-82
2020/12/27 03:26:14;;;;;;;1.70;1.60;;;1.70;99.90;;;2.18;100.00;97243.28;4999122;28;20948;-82
2020/12/27 03:28:42;;;;;;;2.93;1.70;;;1.80;99.90;;;2.13;100.00;97224.88;5001173;28;20490;-82
2020/12/27 03:31:10;;;;;;;1.17;0.93;;;1.70;99.90;;;2.12;100.00;97223.25;5001858;28;20502;-82
2020/12/27 03:33:38;;;;;;;1.53;1.43;;;1.70;99.90;;;2.01;100.00;97216.59;5000708;28;20480;-82
2020/12/27 03:36:06;;;;;;;2.27;1.40;;;1.50;99.90;;;2.02;100.00;97194.22;4999303;28;20474;-82
2020/12/27 03:38:34;;;;;;;1.93;1.30;;;1.50;99.90;;;2.09;100.00;97197.78;4998873;28;20467;-82
2020/12/27 03:41:02;;;;;;;1.73;1.63;;;1.60;99.90;;;2.10;100.00;97190.88;4999275;28;20491;-82
2020/12/27 03:43:30;;;;;;;2.30;1.50;;;1.60;99.90;;;2.13;100.00;97183.63;4998842;28;20467;-83
2020/12/27 03:45:58;;;;;;;2.73;2.10;;;1.60;99.90;;;2.16;100.00;97170.41;4999086;28;20475;-82
2020/12/27 03:48:26;;;;;;;4.07;1.60;;;1.60;99.90;;;2.16;100.00;97162.69;5000886;28;20463;-83
2020/12/27 03:50:54;;;;;;;2.83;1.33;;;1.60;99.90;;;2.17;100.00;97151.41;4999187;28;20470;-82
2020/12/27 03:53:21;;;;;;;1.33;1.23;;;1.70;99.90;;;2.09;100.00;97151.38;5000418;28;20454;-82
2020/12/27 03:55:49;;;;;;;4.03;2.00;;;1.50;99.90;;;2.12;100.00;97139.97;4998835;28;20463;-82
2020/12/27 03:58:16;;;;;;;2.37;1.50;;;1.60;99.90;;;2.13;100.00;97144.94;5001055;28;20463;-82
2020/12/27 04:00:44;;;;;;;3.30;1.70;;;1.60;99.90;;;2.15;100.00;97132.72;5000365;28;20471;-82
2020/12/27 04:03:12;;;;;;;2.80;1.53;;;1.70;99.90;;;2.10;100.00;97116.91;4998720;28;20884;-82
2020/12/27 04:05:40;;;;;;;5.77;1.70;;;1.70;99.90;;;2.15;100.00;97117.25;4998653;28;20680;-83
2020/12/27 04:08:07;;;;;;;9.73;1.67;;;1.70;99.90;;;2.15;100.00;97108.72;4999663;28;20968;-82
2020/12/27 04:10:35;;;;;;;1.57;1.47;;;1.70;99.90;;;2.08;100.00;97098.22;4998522;28;20709;-82
2020/12/27 04:13:02;;;;;;;1.80;1.70;;;1.60;99.90;;;2.01;100.00;97099.81;4997515;28;20689;-82
2020/12/27 04:15:30;;;;;;;3.33;1.57;;;1.50;99.90;;;2.03;100.00;97100.47;4996180;28;20517;-82
2020/12/27 04:17:57;;;;;;;7.40;1.67;;;1.50;99.90;;;2.07;100.00;97086.28;4999651;28;20815;-82
2020/12/27 04:20:26;;;;;;;2.50;1.97;;;1.60;99.90;;;2.07;100.00;97078.56;4998460;28;20464;-82
2020/12/27 04:22:53;;;;;;;1.57;1.47;;;1.60;99.90;;;2.04;100.00;97071.16;5000297;28;20471;-83
2020/12/27 04:25:21;;;;;;;2.77;1.43;;;1.60;99.90;;;2.05;100.00;97062.41;5000571;28;20464;-83
2020/12/27 04:27:48;;;;;;;2.93;1.90;;;1.60;99.90;;;2.02;100.00;97058.41;4998554;28;20467;-82
2020/12/27 04:30:16;;;;;;;1.60;1.50;;;1.50;99.90;;;2.05;100.00;97046.19;4999046;28;20494;-82
2020/12/27 04:32:44;;;;;;;5.13;1.70;;;1.60;99.90;;;2.00;100.00;97038.91;4999638;28;20475;-82
2020/12/27 04:35:11;;;;;;;1.97;1.50;;;1.50;99.90;;;2.00;100.00;97023.44;4999282;28;20565;-82
2020/12/27 04:37:40;;;;;;;1.87;1.47;;;1.50;99.90;;;2.00;100.00;97008.78;4999492;28;20836;-82
2020/12/27 04:40:07;;;;;;;2.60;1.30;;;1.50;99.90;;;2.00;100.00;97000.25;4998651;28;20463;-82
2020/12/27 04:42:35;;;;;;;1.60;1.50;;;1.60;99.90;;;1.98;100.00;96990.06;4999400;28;20474;-82
2020/12/27 04:45:04;;;;;;;3.43;1.60;;;1.50;99.90;;;2.03;100.00;96987.03;4999989;28;20475;-82
2020/12/27 04:47:31;;;;;;;1.77;1.50;;;1.50;99.90;;;2.06;100.00;96989.28;4998593;28;20466;-83
2020/12/27 04:49:59;;;;;;;2.53;1.60;;;1.60;99.90;;;1.96;100.00;96984.28;4998165;28;20471;-82
2020/12/27 04:52:32;;;;;;;1.60;1.30;;;1.50;99.90;;;1.96;100.00;96986.88;4997445;28;20519;-83
2020/12/27 04:55:01;;;;;;;2.23;1.27;;;1.50;99.90;;;1.96;100.00;96973.16;4998046;28;20866;-82
2020/12/27 04:57:29;;;;;;;2.07;1.70;;;1.40;99.90;;;1.97;100.00;96952.41;4997433;28;22954;-82
2020/12/27 05:00:02;;;;;;;5.07;2.37;;;1.40;99.90;;;1.95;100.00;96950.94;4997274;28;21109;-82
2020/12/27 05:02:29;;;;;;;2.23;1.70;;;1.40;99.90;;;1.97;100.00;96956.75;4996553;28;20483;-82
2020/12/27 05:04:57;;;;;;;6.67;1.67;;;1.40;99.90;;;1.97;100.00;96933.56;4999220;28;20494;-82
2020/12/27 05:07:42;;;;;;;2.27;1.80;;;1.40;99.90;;;2.00;100.00;96918.56;4995912;28;20456;-83
2020/12/27 05:10:11;;;;;;;4.70;1.73;;;1.60;99.90;;;2.00;100.00;96912.59;4994723;28;20487;-83
2020/12/27 05:12:38;;;;;;;57.97;20.47;;;1.50;99.90;;;1.97;100.00;96906.00;4995040;28;20971;-90
2020/12/27 05:15:07;;;;;;;2.70;2.33;;;1.50;99.90;;;1.99;100.00;96898.09;4995506;28;20494;-83
2020/12/27 05:17:37;;;;;;;3.27;2.10;;;1.50;99.90;;;1.98;100.00;96896.47;4999669;28;20466;-83
2020/12/27 05:20:09;;;;;;;4.27;1.80;;;1.40;99.90;;;2.00;100.00;96891.97;4998803;28;20451;-83
2020/12/27 05:22:38;;;;;;;1.67;1.57;;;1.50;99.90;;;2.02;100.00;96895.19;4999140;28;21065;-83
2020/12/27 05:25:06;;;;;;;2.30;1.67;;;1.50;99.90;;;2.05;100.00;96881.19;4998900;28;20459;-83
2020/12/27 05:27:42;;;;;;;3.07;1.70;;;1.60;99.90;;;2.04;100.00;96885.53;4998623;28;20916;-83
2020/12/27 05:30:10;;;;;;;2.77;1.70;;;1.50;99.90;;;2.00;100.00;96872.16;4997984;28;20485;-83
2020/12/27 05:32:39;;;;;;;1.90;1.43;;;1.50;99.90;;;2.03;100.00;96871.03;4996543;28;20475;-83
2020/12/27 05:35:12;;;;;;;2.63;1.80;;;1.60;99.90;;;2.01;100.00;96876.34;4996298;28;20579;-83
2020/12/27 05:37:42;;;;;;;1.97;1.80;;;1.60;99.90;;;2.00;100.00;96871.38;4999372;28;20467;-83
2020/12/27 05:40:11;;;;;;;4.30;2.27;;;1.60;99.90;;;1.96;100.00;96859.75;4997668;28;20571;-83
2020/12/27 05:42:40;;;;;;;2.30;1.50;;;1.50;99.90;;;2.00;100.00;96853.31;4997355;28;20832;-83
2020/12/27 05:45:17;;;;;;;2.53;2.00;;;1.50;99.90;;;1.97;100.00;96853.66;4996083;28;20467;-83
2020/12/27 05:47:46;;;;;;;1.90;1.50;;;1.40;99.90;;;2.02;100.00;96841.06;4997632;28;20548;-83
2020/12/27 05:50:17;;;;;;;2.70;1.90;;;1.50;99.90;;;1.97;100.00;96840.75;4998798;28;20463;-84
2020/12/27 05:52:47;;;;;;;2.67;2.10;;;1.40;99.90;;;2.06;100.00;96844.94;4997323;28;20467;-83
2020/12/27 05:55:19;;;;;;;1.83;1.73;;;1.50;99.90;;;2.06;100.00;96842.34;4995244;28;20510;-84
2020/12/27 05:57:53;;;;;;;3.33;1.90;;;1.60;99.90;;;2.06;100.00;96842.34;4997052;28;20960;-83
2020/12/27 06:00:24;;;;;;;1.67;1.57;;;1.60;99.90;;;2.05;100.00;96827.84;4996158;28;20470;-84
2020/12/27 06:02:59;;;;;;;2.60;2.23;;;1.50;99.90;;;2.05;100.00;96809.03;4997151;28;20503;-83
2020/12/27 06:06:13;;;;;;;4.20;2.53;;;1.50;99.90;;;2.03;100.00;96797.09;4995588;28;20455;-84
2020/12/27 06:09:07;;;;;;;7.20;2.30;;;1.60;99.90;;;2.02;100.00;96795.47;4996924;28;20466;-84
2020/12/27 06:11:54;;;;;;;3.17;2.03;;;1.60;99.90;;;2.00;100.00;96786.31;4997815;28;20455;-83
2020/12/27 06:14:43;;;;;;;6.80;1.80;;;1.50;99.90;;;1.99;100.00;96774.38;4998097;28;20494;-84
2020/12/27 06:17:13;;;;;;;2.70;1.70;;;1.50;99.90;;;1.99;100.00;96779.53;4998885;28;20451;-84
2020/12/27 06:20:00;;;;;;;5.43;2.30;;;1.50;99.90;;;1.99;100.00;96771.81;4998356;28;20466;-84
2020/12/27 06:22:31;;;;;;;2.50;1.93;;;1.50;99.90;;;2.00;100.00;96771.66;4997424;28;20468;-84
2020/12/27 06:25:02;;;;;;;2.73;1.77;;;1.50;99.90;;;2.02;100.00;96768.88;4997566;28;20464;-83
2020/12/27 06:27:31;;;;;;;1.80;1.70;;;1.60;99.90;;;1.96;100.00;96766.97;4997440;28;20455;-84
2020/12/27 06:30:09;;;;;;;2.13;1.87;;;1.50;99.90;;;2.02;100.00;96769.69;4998146;28;20763;-83
2020/12/27 06:32:44;;;;;;;2.23;1.87;;;1.60;99.90;;;1.99;100.00;96753.75;4998801;28;20450;-83
2020/12/27 06:35:13;;;;;;;4.00;2.50;;;1.60;99.90;;;2.01;100.00;96741.53;4993602;28;21105;-84
2020/12/27 06:37:44;;;;;;;3.00;1.93;;;1.50;99.90;;;2.00;100.00;96737.34;4995335;28;20463;-84
2020/12/27 06:40:14;;;;;;;2.03;1.73;;;1.60;99.90;;;2.02;100.00;96732.81;4996927;28;20882;-84
2020/12/27 06:42:42;;;;;;;4.40;2.07;;;1.60;99.90;;;2.00;100.00;96707.22;4996969;28;20533;-83
2020/12/27 06:45:28;;;;;;;2.17;1.97;;;1.60;99.90;;;1.98;100.00;96701.41;4997198;28;21020;-83
2020/12/27 06:47:59;;;;;;;1.80;1.70;;;1.50;99.90;;;1.98;100.00;96698.03;4998686;28;20446;-84
2020/12/27 06:50:27;;;;;;;2.37;1.80;;;1.50;99.90;;;1.96;100.00;96690.47;4998245;28;20919;-83
2020/12/27 06:52:55;;;;;;;1.97;1.87;;;1.50;99.90;;;1.99;100.00;96686.75;4998388;28;20472;-81
2020/12/27 06:55:37;;;;;;;10.50;5.03;;;1.50;99.90;;;2.04;100.00;96697.38;5001232;28;20810;-83
2020/12/27 06:58:23;;;;;;;4.93;2.00;;;1.50;99.90;;;2.05;100.00;96693.81;4999211;28;20517;-84
2020/12/27 07:01:13;;;;;;;2.40;2.03;;;1.60;99.90;;;2.04;100.00;96687.06;5000519;28;21030;-84
2020/12/27 07:03:42;;;;;;;1.67;1.43;;;1.60;99.90;;;2.02;100.00;96681.25;5000233;28;20486;-84
2020/12/27 07:06:20;;;;;;;2.23;2.00;;;1.50;99.90;;;2.06;100.00;96681.72;4999150;28;20554;-83
2020/12/27 07:09:04;;;;;;;2.30;2.10;;;1.60;99.90;;;2.01;100.00;96674.50;5000257;28;20475;-84
2020/12/27 07:11:33;;;;;;;2.13;1.90;;;1.50;99.90;;;1.98;100.00;96669.66;4994267;28;20483;-83
2020/12/27 07:14:03;;;;;;;3.50;2.20;;;1.50;99.90;;;1.98;100.00;96664.50;4996629;28;20487;-83
2020/12/27 07:16:48;;;;;;;2.20;2.00;;;1.50;99.90;;;1.97;100.00;96663.72;5000001;28;20471;-82
2020/12/27 07:19:18;;;;;;;2.53;1.70;;;1.50;99.90;;;1.97;100.00;96665.50;5000281;28;20472;-83
2020/12/27 07:21:47;;;;;;;2.10;1.77;;;1.50;99.90;;;2.00;100.00;96636.81;4997861;28;20482;-84
2020/12/27 07:24:22;;;;;;;6.20;1.80;;;1.50;99.90;;;1.99;100.00;96619.72;4999718;28;20470;-83
2020/12/27 07:26:51;;;;;;;2.50;1.93;;;1.50;99.90;;;2.02;100.00;96620.19;5000062;28;20462;-83
2020/12/27 07:29:23;;;;;;;1.83;1.53;;;1.60;99.90;;;1.97;100.00;96617.34;5002618;28;20924;-83
2020/12/27 07:31:56;;;;;;;2.10;1.77;;;1.60;99.90;;;1.98;100.00;96594.94;5002032;28;20960;-83
2020/12/27 07:34:26;;;;;;;2.30;1.83;;;1.50;99.90;;;2.00;100.00;96583.50;4998804;28;20498;-83
2020/12/27 07:37:00;;;;;;;2.50;1.80;;;1.60;99.90;;;2.02;100.00;96573.00;5000289;28;20471;-83
2020/12/27 07:39:53;;;;;;;1.83;1.67;;;1.60;99.90;;;2.04;100.00;96576.22;4998862;28;20463;-84
2020/12/27 07:42:27;;;;;;;3.27;2.03;;;1.60;99.90;;;2.04;100.00;96565.91;4998941;28;20470;-83
2020/12/27 07:44:56;;;;;;;2.10;1.60;;;1.60;99.90;;;2.03;100.00;96559.16;4998204;28;20475;-83
2020/12/27 07:47:25;;;;;;;3.03;1.63;;;1.60;99.90;;;2.03;100.00;96539.34;5000505;28;20465;-83
2020/12/27 07:50:07;;;;;;;1.53;1.43;;;1.60;99.90;;;2.03;100.00;96533.38;4997298;28;20498;-84
2020/12/27 07:52:55;;;;;;;1.83;1.73;;;1.60;99.90;;;2.07;100.00;96528.69;5000289;28;20480;-83
2020/12/27 07:55:32;;;;;;;2.47;1.70;;;1.60;99.90;;;2.07;100.00;96513.22;5000263;28;20486;-83
2020/12/27 07:58:02;;;;;;;1.43;1.33;;;1.60;99.90;;;2.07;100.00;96514.00;5000347;28;20467;-83
2020/12/27 08:00:32;;;;;;;1.67;1.57;;;1.60;99.90;;;2.07;100.00;96511.44;4999664;28;20463;-83
2020/12/27 08:03:05;;;;;;;2.03;1.60;;;1.60;99.90;;;2.10;100.00;96498.19;4999888;28;20988;-83
2020/12/27 08:05:33;;;;;;;2.40;1.60;;;1.70;99.90;;;2.07;100.00;96488.25;5000010;28;20462;-83
2020/12/27 08:08:05;;;;;;;3.57;1.70;;;1.60;99.90;;;2.11;100.00;96496.44;4998288;28;21042;-83
2020/12/27 08:10:35;;;;;;;2.83;1.90;;;1.60;99.90;;;2.13;100.00;96484.97;4997841;28;20840;-83
2020/12/27 08:13:05;;;;;;;2.00;1.70;;;1.70;99.90;;;2.14;100.00;96481.41;5000522;28;20581;-83
2020/12/27 08:15:37;;;;;;;1.73;1.63;;;1.60;99.90;;;2.20;100.00;96473.00;4997150;28;20503;-84
2020/12/27 08:18:08;;;;;;;1.90;1.73;;;1.70;99.90;;;2.20;100.00;96472.19;4997063;28;20527;-83
2020/12/27 08:20:46;;;;;;;2.20;2.00;;;1.70;99.90;;;2.23;100.00;96469.25;4999305;28;20474;-83
2020/12/27 08:23:15;;;;;;;2.33;1.67;;;1.80;99.90;;;2.17;100.00;96463.03;4997823;28;20471;-83
2020/12/27 08:25:42;;;;;;;2.20;1.57;;;1.70;99.90;;;2.19;100.00;96439.63;4996527;28;20479;-83
2020/12/27 08:28:13;;;;;;;4.03;1.60;;;1.80;99.90;;;2.18;100.00;96444.00;4996748;28;20981;-83
2020/12/27 08:30:41;;;;;;;3.83;1.80;;;1.80;99.90;;;2.15;100.00;96426.31;4998725;28;20463;-83
2020/12/27 08:33:14;;;;;;;2.50;1.73;;;1.70;99.90;;;2.17;100.00;96429.50;4998789;28;20522;-84
2020/12/27 08:35:46;;;;;;;1.97;1.73;;;1.80;99.90;;;2.11;100.00;96407.00;4998602;28;20513;-83
2020/12/27 08:38:29;;;;;;;2.50;2.07;;;1.70;99.90;;;2.12;100.00;96398.28;4998195;28;20464;-83
2020/12/27 08:41:10;;;;;;;1.93;1.70;;;1.70;99.90;;;2.06;100.00;96388.69;4999473;28;21002;-84
2020/12/27 08:44:23;;;;;;;66.43;24.07;;;1.60;99.90;;;2.09;100.00;96380.59;4998549;28;20918;-83
2020/12/27 08:46:54;;;;;;;5.17;2.20;;;1.70;99.90;;;2.14;100.00;96378.31;4998506;28;20467;-84
2020/12/27 08:49:40;;;;;;;3.17;2.20;;;1.70;99.90;;;2.17;100.00;96366.84;5000018;28;20464;-84
2020/12/27 08:52:20;;;;;;;2.13;1.93;;;1.70;99.90;;;2.21;100.00;96355.19;5001068;28;20963;-84
2020/12/27 08:54:56;;;;;;;2.37;1.70;;;1.80;99.90;;;2.20;100.00;96359.53;4998604;28;20484;-84
2020/12/27 08:57:25;;;;;;;4.47;2.00;;;1.70;99.90;;;2.23;100.00;96350.66;5000336;28;20440;-84
2020/12/27 09:00:15;;;;;;;3.00;1.77;;;1.80;99.90;;;2.23;100.00;96337.75;4998094;28;20995;-84
2020/12/27 09:02:44;;;;;;;2.60;1.73;;;1.70;99.90;;;2.29;100.00;96337.84;4993608;28;20471;-84
2020/12/27 09:05:14;;;;;;;6.93;2.00;;;1.80;99.90;;;2.29;100.00;96347.38;4999722;28;20463;-84
2020/12/27 09:07:44;;;;;;;2.53;1.77;;;1.80;99.90;;;2.30;100.00;96331.72;4999185;28;20467;-84
2020/12/27 09:10:21;;;;;;;3.00;1.63;;;1.80;99.90;;;2.33;100.00;96322.81;4999320;28;20455;-84
2020/12/27 09:13:04;;;;;;;2.50;2.00;;;1.90;99.90;;;2.32;100.00;96314.31;4999524;28;20444;-84
2020/12/27 09:15:35;;;;;;;1.70;1.60;;;1.90;99.90;;;2.34;100.00;96304.59;4998891;28;20507;-85
2020/12/27 09:18:05;;;;;;;1.90;1.70;;;1.90;99.90;;;2.36;100.00;96305.22;4999756;28;20465;-85
2020/12/27 09:20:36;;;;;;;2.10;1.70;;;2.00;99.90;;;2.36;100.00;96300.06;5004712;28;20463;-84
2020/12/27 09:23:13;;;;;;;2.23;1.60;;;1.90;99.90;;;2.39;100.00;96301.50;4999170;28;20490;-84
2020/12/27 09:25:42;;;;;;;3.10;1.77;;;1.90;99.90;;;2.34;100.00;96302.03;5004016;28;20529;-85
2020/12/27 09:28:16;;;;;;;1.77;1.37;;;1.90;99.90;;;2.40;100.00;96292.75;4998788;28;20756;-84
2020/12/27 09:30:48;;;;;;;1.90;1.70;;;2.00;99.90;;;2.44;100.00;96279.34;4999064;28;20458;-84
2020/12/27 09:33:21;;;;;;;4.37;1.63;;;2.00;99.90;;;2.39;100.00;96276.53;4999044;28;20458;-85
2020/12/27 09:35:57;;;;;;;2.17;1.73;;;1.90;99.90;;;2.41;100.00;96277.13;4998832;28;20865;-84
2020/12/27 09:38:27;;;;;;;1.40;1.20;;;1.90;99.90;;;2.41;100.00;96274.53;4998937;28;20571;-84
2020/12/27 09:41:07;;;;;;;2.20;1.43;;;2.00;99.90;;;2.45;100.00;96254.34;4998423;28;20463;-84
2020/12/27 09:43:49;;;;;;;1.57;1.47;;;2.00;99.90;;;2.45;100.00;96260.31;4999685;28;20450;-84
2020/12/27 09:46:46;;;;;;;2.53;1.53;;;2.00;99.90;;;2.49;100.00;96246.09;4999202;28;20448;-85
2020/12/27 09:49:23;;;;;;;1.40;1.30;;;2.00;99.90;;;2.46;100.00;96246.41;4994213;28;20450;-85
2020/12/27 09:52:07;;;;;;;2.40;1.50;;;1.90;99.90;;;2.51;100.00;96238.94;4999251;28;20503;-85
2020/12/27 09:54:37;;;;;;;3.67;2.10;;;2.10;99.90;;;2.54;100.00;96240.34;4999212;28;20492;-85
2020/12/27 09:57:13;;;;;;;3.00;1.60;;;2.10;99.90;;;2.55;100.00;96234.22;4998094;28;20455;-85
2020/12/27 09:59:41;;;;;;;2.23;1.40;;;2.10;99.90;;;2.57;100.00;96219.34;4998962;28;20982;-84
2020/12/27 10:02:09;;;;;;;1.30;1.20;;;2.10;99.90;;;2.57;100.00;96210.84;4999746;28;20462;-85
2020/12/27 10:04:38;;;;;;;1.80;1.40;;;2.10;99.90;;;2.56;100.00;96204.06;4998283;28;20560;-85
2020/12/27 10:07:08;;;;;;;7.77;2.20;;;2.10;99.90;;;2.57;100.00;96201.31;4997660;28;20455;-85
2020/12/27 10:09:37;;;;;;;1.93;1.50;;;2.20;99.90;;;2.56;100.00;96184.25;4999128;28;20477;-85
2020/12/27 10:12:06;;;;;;;2.07;1.30;;;2.20;99.90;;;2.56;100.00;96184.25;4998289;28;20494;-85
2020/12/27 10:14:33;;;;;;;1.20;1.10;;;2.20;99.90;;;2.59;100.00;96180.50;4998944;28;20494;-85
2020/12/27 10:17:02;;;;;;;1.60;1.50;;;2.20;99.90;;;2.62;100.00;96156.91;4998622;28;20436;-85
2020/12/27 10:19:32;;;;;;;1.80;1.40;;;2.20;99.90;;;2.66;100.00;96156.38;4998249;28;20462;-84
2020/12/27 10:22:00;;;;;;;1.60;1.50;;;2.20;99.90;;;2.68;100.00;96144.06;4998252;28;20842;-85
2020/12/27 10:24:31;;;;;;;1.57;1.20;;;2.30;99.90;;;2.69;100.00;96139.72;4999283;28;20468;-85
2020/12/27 10:27:01;;;;;;;1.73;1.63;;;2.30;99.90;;;2.70;100.00;96133.56;5001378;28;20475;-85
2020/12/27 10:29:30;;;;;;;1.73;1.50;;;2.30;99.90;;;2.70;100.00;96125.84;5003145;28;20843;-85
2020/12/27 10:32:00;;;;;;;2.90;1.30;;;2.20;99.90;;;2.72;100.00;96126.44;5003247;28;20475;-84
2020/12/27 10:34:29;;;;;;;6.47;1.90;;;2.30;99.90;;;2.72;100.00;96116.09;5003408;28;21391;-85
2020/12/27 10:36:59;;;;;;;1.60;1.50;;;2.30;99.90;;;2.73;100.00;96104.81;5002908;28;20806;-85
2020/12/27 10:39:28;;;;;;;2.60;1.47;;;2.30;99.90;;;2.75;100.00;96093.31;5003590;28;20472;-84
2020/12/27 10:41:57;;;;;;;1.70;1.43;;;2.30;99.90;;;2.80;100.00;96074.72;5001633;28;20443;-84